• Join FlightAware (Why Join?)
  • Login
  • US Flag 
01:19AM EST


 

Airport Tracker/Info


-or-


 

Live Flight TrackerFlight Track Log ✈ N100PM ✈ 02-Mar-2014 ✈ KVNC - KAPF

Flight Track Log - Related Links

Times and Time Zones

All times are in EST time to prevent confusion due to time zone crossing. See the N100PM flight status page for this flight to view local times or setup timezone preferences in your user account.

Time Position Orientation Groundspeed Altitude Reporting Facility
EST Latitude Longitude Course Direction KTS MPH feet Rate Location/Type
01:06PM 27.0500 -82.4333 90° East 80 92 1,700  Level Tampa TRACON
01:08PM 27.0500 -82.3833 90° East 112 129 2,400 420 Climbing Tampa TRACON
01:10PM 27.0126 -82.3833 180° South  Level FlightAware Approximate
01:17PM 26.8960 -82.3017 147° Southeast  Level FlightAware Approximate
01:18PM 26.8756 -82.2868 147° Southeast  Level FlightAware Approximate
01:19PM 26.8551 -82.2719 147° Southeast  Level FlightAware Approximate
01:20PM 26.8346 -82.2570 147° Southeast  Level FlightAware Approximate
01:21PM 26.8141 -82.2422 147° Southeast  Level FlightAware Approximate
01:22PM 26.7936 -82.2273 147° Southeast  Level FlightAware Approximate
01:23PM 26.7731 -82.2125 147° Southeast  Level FlightAware Approximate
01:24PM 26.7526 -82.1976 147° Southeast  Level FlightAware Approximate
01:25PM 26.7321 -82.1828 147° Southeast  Level FlightAware Approximate
01:26PM 26.7116 -82.1679 147° Southeast  Level FlightAware Approximate
01:27PM 26.6910 -82.1531 147° Southeast  Level FlightAware Approximate
01:28PM 26.6705 -82.1383 147° Southeast  Level FlightAware Approximate
01:29PM 26.6500 -82.1234 147° Southeast  Level FlightAware Approximate
01:30PM 26.6295 -82.1086 147° Southeast  Level FlightAware Approximate
01:31PM 26.6090 -82.0938 147° Southeast  Level FlightAware Approximate
01:32PM 26.5885 -82.0790 147° Southeast  Level FlightAware Approximate
01:33PM 26.5680 -82.0642 147° Southeast  Level FlightAware Approximate
01:34PM 26.5475 -82.0494 147° Southeast  Level FlightAware Approximate
01:35PM 26.5270 -82.0346 147° Southeast  Level FlightAware Approximate
01:36PM 26.5064 -82.0198 147° Southeast  Level FlightAware Approximate
01:37PM 26.4859 -82.0050 147° Southeast  Level FlightAware Approximate
01:38PM 26.4654 -81.9902 147° Southeast  Level FlightAware Approximate
01:39PM 26.4449 -81.9754 147° Southeast  Level FlightAware Approximate
01:40PM 26.4243 -81.9607 147° Southeast  Level FlightAware Approximate
01:41PM 26.4038 -81.9459 147° Southeast  Level FlightAware Approximate
01:42PM 26.3833 -81.9312 147° Southeast  Level FlightAware Approximate
01:43PM 26.3627 -81.9164 147° Southeast  Level FlightAware Approximate
01:44PM 26.3422 -81.9017 147° Southeast  Level FlightAware Approximate
01:45PM 26.3217 -81.8869 147° Southeast  Level FlightAware Approximate
01:46PM 26.3008 -81.8728 149° Southeast  Level FlightAware Approximate
01:47PM 26.2799 -81.8588 149° Southeast  Level FlightAware Approximate
01:48PM 26.2589 -81.8448 149° Southeast  Level FlightAware Approximate
01:49PM 26.2379 -81.8308 149° Southeast  Level FlightAware Approximate
01:50PM 26.2170 -81.8169 149° Southeast  Level FlightAware Approximate
01:51PM 26.1967 -81.8017 146° Southeast  Level FlightAware Approximate
01:52PM 26.1765 -81.7865 146° Southeast  Level FlightAware Approximate
01:53PM 26.1562 -81.7713 146° Southeast  Level FlightAware Approximate
01:54PM 26.1500 -81.7667 146° Southeast  Level FlightAware Approximate
01:55PM 26.1524 -81.7756 146° Southeast  Level Estimated